• Join FlightAware (Why Join?)
  • Login
  • US Flag 
04:15AM EST


 

Airport Tracker/Info


-or-


 

Live Flight TrackerFlight Track Log ✈ RPA4907 ✈ 01-Jul-2013 ✈ KIAD - KALB

Flight Track Log - Related Links

Times and Time Zones

All times are in EDT time to prevent confusion due to time zone crossing. See the RPA4907 flight status page for this flight to view local times or setup timezone preferences in your user account.

Time Position Orientation Groundspeed Altitude Reporting Facility
EDT Latitude Longitude Course Direction KTS MPH feet Rate Location/Type
08:20AM 38.9500 -77.5000 North 184 212 1,300  Level Potomac TRACON
08:21AM 39.0000 -77.5667 314° West 231 266 2,800 1,620 Climbing Potomac TRACON
08:23AM 39.2438 -77.4500 North  Level FlightAware Approximate
08:24AM 39.3472 -77.4500 North  Level FlightAware Approximate
08:24AM 39.1469 -77.5881 354° North 256 295 6,900  Level Washington Center
08:25AM 39.4507 -77.4500 North  Level FlightAware Approximate
08:25AM 39.2244 -77.5689 11° North 266 306 8,700  Level Washington Center
08:26AM 39.5542 -77.4500 North  Level FlightAware Approximate
08:26AM 39.3039 -77.5603 North 278 320 10,400  Level Washington Center
08:27AM 39.3828 -77.5758 351° North 278 320 12,000 1,560 Climbing Washington Center
08:28AM 39.4622 -77.5564 11° North 278 320 13,500 1,320 Climbing Washington Center
08:29AM 39.5400 -77.5103 25° Northeast 283 326 14,700 1,140 Climbing Washington Center
08:30AM 39.6178 -77.4692 22° Northeast 293 337 15,900 780 Climbing Washington Center
08:30AM 39.6617 -77.4511 18° North 308 354 16,000 60 Climbing New York Center
08:31AM 39.7469 -77.4539 359° North 328 377 16,000  Level New York Center
08:32AM 39.8556 -77.4156 15° North 350 403 16,000  Level New York Center
08:33AM 39.9417 -77.3669 23° Northeast 377 434 16,000 180 Level New York Center
08:34AM 40.0511 -77.3094 22° Northeast 382 440 16,400 360 Climbing New York Center
08:35AM 40.1369 -77.2631 22° Northeast 382 440 16,800 300 Climbing New York Center
08:36AM 40.2422 -77.2078 22° Northeast 371 427 17,000 60 Climbing New York Center
08:37AM 40.3281 -77.1611 23° Northeast 363 418 17,000  Level New York Center
08:38AM 40.4356 -77.1031 22° Northeast 363 418 17,000  Level New York Center
08:39AM 40.5344 -77.0492 22° Northeast 368 423 17,000  Level New York Center
08:40AM 40.6350 -76.9956 22° Northeast 375 432 17,000  Level New York Center
08:41AM 40.7339 -76.9414 23° Northeast 382 440 17,000  Level New York Center
08:42AM 40.8325 -76.8872 23° Northeast 382 440 17,000  Level New York Center
08:43AM 40.9333 -76.8331 22° Northeast 388 447 17,000  Level New York Center
08:44AM 41.0319 -76.7758 24° Northeast 383 441 17,000  Level New York Center
08:45AM 41.1306 -76.7211 23° Northeast 383 441 17,000  Level New York Center
08:46AM 41.2314 -76.6639 23° Northeast 383 441 17,000  Level New York Center
08:47AM 41.3300 -76.6061 24° Northeast 383 441 17,000  Level New York Center
08:48AM 41.4181 -76.5558 23° Northeast 383 441 17,000  Level New York Center
08:49AM 41.5031 -76.4772 35° Northeast 383 441 17,000  Level New York Center
08:50AM 41.5633 -76.3464 58° Northeast 370 426 17,000  Level New York Center
08:51AM 41.6231 -76.2292 56° Northeast 370 426 17,000  Level New York Center
08:52AM 41.6803 -76.1117 57° Northeast 375 432 17,000  Level New York Center
08:53AM 41.7331 -76.0047 56° Northeast 375 432 17,000  Level New York Center
08:56AM 41.8828 -75.6917 57° Northeast 397 457 17,000  Level Boston Center
08:57AM 41.9403 -75.5689 58° Northeast 392 451 17,000  Level Boston Center
08:58AM 41.9978 -75.4489 57° Northeast 392 451 17,000  Level Boston Center
08:59AM 42.0531 -75.3258 59° Northeast 387 445 17,000  Level Boston Center
09:00AM 42.1103 -75.2053 57° Northeast 382 440 17,000  Level Boston Center
09:01AM 42.1608 -75.0953 58° Northeast 382 440 17,000  Level Boston Center
09:02AM 42.2200 -74.9744 56° Northeast 382 440 17,000  Level Boston Center
09:02AM 42.2528 -74.8972 60° Northeast 393 452 17,000 -180 Level Boston Center
09:03AM 42.3075 -74.7842 57° Northeast 396 456 16,800 -900 Descending Boston Center
09:04AM 42.3403 -74.7069 60° Northeast 389 448 15,700 -1,800 Descending Boston Center
09:05AM 42.3947 -74.5908 58° Northeast 384 442 14,100 -1,800 Descending Boston Center
09:06AM 42.4489 -74.4800 56° Northeast 360 414 12,200 -1,800 Descending Boston Center
09:06AM 42.4808 -74.4417 42° Northeast 325 374 11,400 -1,620 Descending Boston Center
09:07AM 42.5106 -74.3975 48° Northeast 333 383 10,600 -1,680 Descending Boston Center
09:07AM 42.5428 -74.3536 45° Northeast 311 358 9,700 -1,680 Descending Boston Center
09:08AM 42.5981 -74.2792 45° Northeast 290 334 8,100 -1,560 Descending Boston Center
09:09AM 42.6536 -74.1989 47° Northeast 275 316 6,600 -1,440 Descending Boston Center
09:10AM 42.7047 -74.1269 46° Northeast 268 308 5,300 -1,260 Descending Boston Center
09:11AM 42.7536 -74.0575 46° Northeast 253 291 4,100 -1,140 Descending Boston Center
09:12AM 42.8025 -73.9936 44° Northeast 238 274 3,000 -600 Descending Boston Center
09:13AM 42.8469 -73.9325 45° Northeast 230 265 2,900 -120 Descending Boston Center